sensor_id;sensor_type;location;lat;lon;timestamp;pressure;altitude;pressure_sealevel;temperature;humidity
12178;BME280;6152;48.728;9.256;2023-02-18T00:00:19;98011.13;;;10.63;100.00
12178;BME280;6152;48.728;9.256;2023-02-18T00:02:46;98008.63;;;10.61;100.00
12178;BME280;6152;48.728;9.256;2023-02-18T00:05:13;97998.25;;;10.60;100.00
12178;BME280;6152;48.728;9.256;2023-02-18T00:07:40;97992.31;;;10.58;100.00
12178;BME280;6152;48.728;9.256;2023-02-18T00:10:10;97998.31;;;10.58;100.00
12178;BME280;6152;48.728;9.256;2023-02-18T00:12:36;97977.50;;;10.58;100.00
12178;BME280;6152;48.728;9.256;2023-02-18T00:15:03;97993.91;;;10.60;100.00
12178;BME280;6152;48.728;9.256;2023-02-18T00:17:40;97992.84;;;10.64;100.00
12178;BME280;6152;48.728;9.256;2023-02-18T00:20:19;98006.63;;;10.67;100.00
12178;BME280;6152;48.728;9.256;2023-02-18T00:22:46;97998.53;;;10.73;100.00
12178;BME280;6152;48.728;9.256;2023-02-18T00:25:12;97998.63;;;10.71;100.00
12178;BME280;6152;48.728;9.256;2023-02-18T00:27:39;97988.34;;;10.68;100.00
12178;BME280;6152;48.728;9.256;2023-02-18T00:30:05;97989.09;;;10.70;100.00
12178;BME280;6152;48.728;9.256;2023-02-18T00:32:33;97989.06;;;10.72;100.00
12178;BME280;6152;48.728;9.256;2023-02-18T00:34:59;97994.25;;;10.72;100.00
12178;BME280;6152;48.728;9.256;2023-02-18T00:37:25;97987.19;;;10.74;100.00
12178;BME280;6152;48.728;9.256;2023-02-18T00:39:55;97983.84;;;10.72;100.00
12178;BME280;6152;48.728;9.256;2023-02-18T00:42:24;97991.66;;;10.72;100.00
12178;BME280;6152;48.728;9.256;2023-02-18T00:44:53;97994.00;;;10.76;100.00
12178;BME280;6152;48.728;9.256;2023-02-18T00:47:19;97994.25;;;10.72;100.00
12178;BME280;6152;48.728;9.256;2023-02-18T00:49:46;97985.50;;;10.73;100.00
12178;BME280;6152;48.728;9.256;2023-02-18T00:52:21;97980.28;;;10.73;100.00
12178;BME280;6152;48.728;9.256;2023-02-18T00:54:47;97971.44;;;10.77;100.00
12178;BME280;6152;48.728;9.256;2023-02-18T00:57:13;97974.19;;;10.74;100.00
12178;BME280;6152;48.728;9.256;2023-02-18T00:59:40;97972.44;;;10.74;100.00
12178;BME280;6152;48.728;9.256;2023-02-18T01:02:06;97971.53;;;10.75;100.00
12178;BME280;6152;48.728;9.256;2023-02-18T01:04:32;97981.84;;;10.77;100.00
12178;BME280;6152;48.728;9.256;2023-02-18T01:06:58;97969.88;;;10.73;100.00
12178;BME280;6152;48.728;9.256;2023-02-18T01:09:24;97971.44;;;10.77;100.00
12178;BME280;6152;48.728;9.256;2023-02-18T01:11:51;97973.19;;;10.76;100.00
12178;BME280;6152;48.728;9.256;2023-02-18T01:14:17;97978.50;;;10.75;100.00
12178;BME280;6152;48.728;9.256;2023-02-18T01:16:43;97970.59;;;10.76;100.00
12178;BME280;6152;48.728;9.256;2023-02-18T01:19:09;97971.59;;;10.74;100.00
12178;BME280;6152;48.728;9.256;2023-02-18T01:21:35;97971.59;;;10.74;100.00
12178;BME280;6152;48.728;9.256;2023-02-18T01:24:01;97963.00;;;10.72;100.00
12178;BME280;6152;48.728;9.256;2023-02-18T01:26:28;97966.66;;;10.68;100.00
12178;BME280;6152;48.728;9.256;2023-02-18T01:28:54;97967.53;;;10.68;100.00
12178;BME280;6152;48.728;9.256;2023-02-18T01:31:20;97954.72;;;10.63;100.00
12178;BME280;6152;48.728;9.256;2023-02-18T01:33:46;97954.88;;;10.60;100.00
12178;BME280;6152;48.728;9.256;2023-02-18T01:36:12;97957.38;;;10.62;100.00
12178;BME280;6152;48.728;9.256;2023-02-18T01:38:38;97947.81;;;10.62;100.00
12178;BME280;6152;48.728;9.256;2023-02-18T01:41:05;97947.97;;;10.59;100.00
12178;BME280;6152;48.728;9.256;2023-02-18T01:43:31;97955.91;;;10.56;100.00
12178;BME280;6152;48.728;9.256;2023-02-18T01:48:33;97953.75;;;10.47;100.00
12178;BME280;6152;48.728;9.256;2023-02-18T01:51:12;97943.34;;;10.47;100.00
12178;BME280;6152;48.728;9.256;2023-02-18T01:53:44;97947.75;;;10.45;100.00
12178;BME280;6152;48.728;9.256;2023-02-18T01:56:19;97945.00;;;10.48;100.00
12178;BME280;6152;48.728;9.256;2023-02-18T01:58:47;97954.59;;;10.48;100.00
12178;BME280;6152;48.728;9.256;2023-02-18T02:01:14;97941.78;;;10.43;100.00
12178;BME280;6152;48.728;9.256;2023-02-18T02:03:40;97949.81;;;10.39;100.00
12178;BME280;6152;48.728;9.256;2023-02-18T02:06:17;97942.09;;;10.37;100.00
12178;BME280;6152;48.728;9.256;2023-02-18T02:08:45;97942.22;;;10.34;100.00
12178;BME280;6152;48.728;9.256;2023-02-18T02:16:56;97936.38;;;10.29;100.00
12178;BME280;6152;48.728;9.256;2023-02-18T02:22:53;97952.19;;;10.25;100.00
12178;BME280;6152;48.728;9.256;2023-02-18T02:34:47;97940.47;;;10.16;100.00
12178;BME280;6152;48.728;9.256;2023-02-18T02:42:59;97932.78;;;10.13;100.00
12178;BME280;6152;48.728;9.256;2023-02-18T02:45:53;97931.94;;;10.12;100.00
12178;BME280;6152;48.728;9.256;2023-02-18T02:51:19;97920.03;;;10.07;100.00
12178;BME280;6152;48.728;9.256;2023-02-18T02:53:49;97916.72;;;10.03;100.00
12178;BME280;6152;48.728;9.256;2023-02-18T02:56:18;97922.16;;;9.99;100.00
12178;BME280;6152;48.728;9.256;2023-02-18T02:58:46;97922.22;;;9.97;100.00
12178;BME280;6152;48.728;9.256;2023-02-18T03:04:43;97916.03;;;10.00;100.00
12178;BME280;6152;48.728;9.256;2023-02-18T03:07:27;97918.84;;;9.95;100.00
12178;BME280;6152;48.728;9.256;2023-02-18T03:10:38;97925.03;;;9.93;100.00
12178;BME280;6152;48.728;9.256;2023-02-18T03:13:08;97913.94;;;9.89;100.00
12178;BME280;6152;48.728;9.256;2023-02-18T03:16:10;97923.47;;;9.89;100.00
12178;BME280;6152;48.728;9.256;2023-02-18T03:18:44;97921.78;;;9.88;100.00
12178;BME280;6152;48.728;9.256;2023-02-18T03:24:11;97915.13;;;9.82;100.00
12178;BME280;6152;48.728;9.256;2023-02-18T03:26:43;97917.72;;;9.82;100.00
12178;BME280;6152;48.728;9.256;2023-02-18T03:29:14;97909.84;;;9.84;100.00
12178;BME280;6152;48.728;9.256;2023-02-18T03:31:43;97900.47;;;9.80;100.00
12178;BME280;6152;48.728;9.256;2023-02-18T03:34:17;97897.16;;;9.76;100.00
12178;BME280;6152;48.728;9.256;2023-02-18T03:36:45;97896.31;;;9.76;100.00
12178;BME280;6152;48.728;9.256;2023-02-18T03:39:15;97896.59;;;9.70;100.00
12178;BME280;6152;48.728;9.256;2023-02-18T03:41:43;97885.44;;;9.68;100.00
12178;BME280;6152;48.728;9.256;2023-02-18T03:44:10;97885.50;;;9.66;100.00
12178;BME280;6152;48.728;9.256;2023-02-18T03:46:39;97885.72;;;9.61;100.00
12178;BME280;6152;48.728;9.256;2023-02-18T03:49:05;97881.56;;;9.57;100.00
12178;BME280;6152;48.728;9.256;2023-02-18T03:51:32;97891.13;;;9.57;100.00
12178;BME280;6152;48.728;9.256;2023-02-18T03:53:58;97886.78;;;9.57;100.00
12178;BME280;6152;48.728;9.256;2023-02-18T03:56:24;97894.03;;;9.49;100.00
12178;BME280;6152;48.728;9.256;2023-02-18T03:58:50;97890.81;;;9.44;100.00
12178;BME280;6152;48.728;9.256;2023-02-18T04:01:16;97900.56;;;9.39;100.00
12178;BME280;6152;48.728;9.256;2023-02-18T04:03:42;97900.69;;;9.36;100.00
12178;BME280;6152;48.728;9.256;2023-02-18T04:06:08;97899.22;;;9.31;100.00
12178;BME280;6152;48.728;9.256;2023-02-18T04:08:35;97904.47;;;9.29;100.00
12178;BME280;6152;48.728;9.256;2023-02-18T04:11:01;97906.16;;;9.30;100.00
12178;BME280;6152;48.728;9.256;2023-02-18T04:13:27;97897.38;;;9.33;100.00
12178;BME280;6152;48.728;9.256;2023-02-18T04:15:53;97901.59;;;9.35;100.00
12178;BME280;6152;48.728;9.256;2023-02-18T04:18:20;97905.13;;;9.34;100.00
12178;BME280;6152;48.728;9.256;2023-02-18T04:20:46;97892.94;;;9.35;100.00
12178;BME280;6152;48.728;9.256;2023-02-18T04:23:13;97884.34;;;9.34;100.00
12178;BME280;6152;48.728;9.256;2023-02-18T04:25:39;97888.41;;;9.40;100.00
12178;BME280;6152;48.728;9.256;2023-02-18T04:28:06;97889.72;;;9.30;100.00
12178;BME280;6152;48.728;9.256;2023-02-18T04:30:32;97885.69;;;9.23;100.00
12178;BME280;6152;48.728;9.256;2023-02-18T04:32:58;97879.66;;;9.22;100.00
12178;BME280;6152;48.728;9.256;2023-02-18T04:35:24;97881.50;;;9.20;100.00
12178;BME280;6152;48.728;9.256;2023-02-18T04:37:50;97875.00;;;9.10;100.00
12178;BME280;6152;48.728;9.256;2023-02-18T04:40:16;97876.81;;;9.08;100.00
12178;BME280;6152;48.728;9.256;2023-02-18T04:42:43;97888.44;;;8.99;100.00
12178;BME280;6152;48.728;9.256;2023-02-18T04:45:09;97886.00;;;8.95;100.00
12178;BME280;6152;48.728;9.256;2023-02-18T04:47:35;97887.00;;;8.92;100.00
12178;BME280;6152;48.728;9.256;2023-02-18T04:50:01;97890.66;;;8.87;100.00
12178;BME280;6152;48.728;9.256;2023-02-18T04:52:27;97891.81;;;8.80;100.00
12178;BME280;6152;48.728;9.256;2023-02-18T04:54:53;97888.38;;;8.79;100.00
12178;BME280;6152;48.728;9.256;2023-02-18T04:57:19;97891.97;;;8.77;100.00
12178;BME280;6152;48.728;9.256;2023-02-18T04:59:45;97891.25;;;8.73;100.00
12178;BME280;6152;48.728;9.256;2023-02-18T05:02:11;97892.22;;;8.71;100.00
12178;BME280;6152;48.728;9.256;2023-02-18T05:04:38;97894.81;;;8.71;100.00
12178;BME280;6152;48.728;9.256;2023-02-18T05:07:04;97885.31;;;8.70;100.00
12178;BME280;6152;48.728;9.256;2023-02-18T05:09:30;97892.25;;;8.69;100.00
12178;BME280;6152;48.728;9.256;2023-02-18T05:11:56;97890.66;;;8.67;100.00
12178;BME280;6152;48.728;9.256;2023-02-18T05:14:22;97881.25;;;8.64;100.00
12178;BME280;6152;48.728;9.256;2023-02-18T05:16:48;97891.75;;;8.61;100.00
12178;BME280;6152;48.728;9.256;2023-02-18T05:19:15;97894.41;;;8.59;100.00
12178;BME280;6152;48.728;9.256;2023-02-18T05:21:42;97903.06;;;8.58;100.00
12178;BME280;6152;48.728;9.256;2023-02-18T05:24:08;97894.66;;;8.53;100.00
12178;BME280;6152;48.728;9.256;2023-02-18T05:26:35;97898.13;;;8.52;100.00
12178;BME280;6152;48.728;9.256;2023-02-18T05:29:02;97892.69;;;8.58;100.00
12178;BME280;6152;48.728;9.256;2023-02-18T05:31:28;97886.59;;;8.59;100.00
12178;BME280;6152;48.728;9.256;2023-02-18T05:33:55;97887.41;;;8.61;100.00
12178;BME280;6152;48.728;9.256;2023-02-18T05:36:21;97876.06;;;8.64;100.00
12178;BME280;6152;48.728;9.256;2023-02-18T05:38:47;97883.88;;;8.62;100.00
12178;BME280;6152;48.728;9.256;2023-02-18T05:41:13;97877.97;;;8.59;100.00
12178;BME280;6152;48.728;9.256;2023-02-18T05:43:39;97884.00;;;8.59;100.00
12178;BME280;6152;48.728;9.256;2023-02-18T05:46:28;97884.28;;;8.53;100.00
12178;BME280;6152;48.728;9.256;2023-02-18T05:48:54;97878.31;;;8.51;100.00
12178;BME280;6152;48.728;9.256;2023-02-18T05:51:21;97879.38;;;8.46;100.00
12178;BME280;6152;48.728;9.256;2023-02-18T05:53:47;97878.53;;;8.45;100.00
12178;BME280;6152;48.728;9.256;2023-02-18T05:56:13;97879.47;;;8.44;100.00
12178;BME280;6152;48.728;9.256;2023-02-18T05:58:39;97871.91;;;8.38;100.00
12178;BME280;6152;48.728;9.256;2023-02-18T06:01:05;97882.88;;;8.45;100.00
12178;BME280;6152;48.728;9.256;2023-02-18T06:03:31;97875.00;;;8.48;100.00
12178;BME280;6152;48.728;9.256;2023-02-18T06:05:57;97878.31;;;8.51;100.00
12178;BME280;6152;48.728;9.256;2023-02-18T06:08:23;97877.25;;;8.55;100.00
12178;BME280;6152;48.728;9.256;2023-02-18T06:10:49;97878.81;;;8.59;100.00
12178;BME280;6152;48.728;9.256;2023-02-18T06:13:16;97868.31;;;8.62;100.00
12178;BME280;6152;48.728;9.256;2023-02-18T06:15:42;97867.41;;;8.63;100.00
12178;BME280;6152;48.728;9.256;2023-02-18T06:18:08;97865.69;;;8.64;100.00
12178;BME280;6152;48.728;9.256;2023-02-18T06:20:34;97872.66;;;8.62;100.00
12178;BME280;6152;48.728;9.256;2023-02-18T06:23:00;97859.75;;;8.60;100.00
12178;BME280;6152;48.728;9.256;2023-02-18T06:25:26;97878.78;;;8.61;100.00
12178;BME280;6152;48.728;9.256;2023-02-18T06:27:53;97875.22;;;8.63;100.00
12178;BME280;6152;48.728;9.256;2023-02-18T06:30:19;97881.13;;;8.67;100.00
12178;BME280;6152;48.728;9.256;2023-02-18T06:32:45;97875.06;;;8.67;100.00
12178;BME280;6152;48.728;9.256;2023-02-18T06:35:11;97877.66;;;8.67;100.00
12178;BME280;6152;48.728;9.256;2023-02-18T06:37:37;97873.16;;;8.72;100.00
12178;BME280;6152;48.728;9.256;2023-02-18T06:40:04;97880.81;;;8.75;100.00
12178;BME280;6152;48.728;9.256;2023-02-18T06:42:30;97876.22;;;8.81;100.00
12178;BME280;6152;48.728;9.256;2023-02-18T06:44:56;97878.69;;;8.84;100.00
12178;BME280;6152;48.728;9.256;2023-02-18T06:47:22;97879.34;;;8.89;100.00
12178;BME280;6152;48.728;9.256;2023-02-18T06:49:48;97882.53;;;8.96;100.00
12178;BME280;6152;48.728;9.256;2023-02-18T06:52:14;97877.19;;;8.99;100.00
12178;BME280;6152;48.728;9.256;2023-02-18T06:54:41;97878.63;;;9.06;100.00
12178;BME280;6152;48.728;9.256;2023-02-18T06:57:07;97880.19;;;9.10;100.00
12178;BME280;6152;48.728;9.256;2023-02-18T06:59:33;97886.91;;;9.14;100.00
12178;BME280;6152;48.728;9.256;2023-02-18T07:01:59;97882.53;;;9.16;100.00
12178;BME280;6152;48.728;9.256;2023-02-18T07:04:25;97888.47;;;9.18;100.00
12178;BME280;6152;48.728;9.256;2023-02-18T07:06:51;97881.28;;;9.25;100.00
12178;BME280;6152;48.728;9.256;2023-02-18T07:09:17;97882.91;;;9.27;100.00
12178;BME280;6152;48.728;9.256;2023-02-18T07:11:43;97884.59;;;9.28;100.00
12178;BME280;6152;48.728;9.256;2023-02-18T07:14:09;97882.63;;;9.33;100.00
12178;BME280;6152;48.728;9.256;2023-02-18T07:16:36;97873.72;;;9.39;100.00
12178;BME280;6152;48.728;9.256;2023-02-18T07:19:02;97873.53;;;9.43;100.00
12178;BME280;6152;48.728;9.256;2023-02-18T07:21:29;97876.66;;;9.51;100.00
12178;BME280;6152;48.728;9.256;2023-02-18T07:23:55;97876.22;;;9.60;100.00
12178;BME280;6152;48.728;9.256;2023-02-18T07:26:21;97884.78;;;9.62;100.00
12178;BME280;6152;48.728;9.256;2023-02-18T07:28:47;97883.84;;;9.65;100.00
12178;BME280;6152;48.728;9.256;2023-02-18T07:31:13;97873.88;;;9.75;100.00
12178;BME280;6152;48.728;9.256;2023-02-18T07:33:39;97876.22;;;9.79;100.00
12178;BME280;6152;48.728;9.256;2023-02-18T07:36:06;97881.19;;;9.85;100.00
12178;BME280;6152;48.728;9.256;2023-02-18T07:38:32;97882.78;;;9.88;100.00
12178;BME280;6152;48.728;9.256;2023-02-18T07:40:59;97872.19;;;9.92;100.00
12178;BME280;6152;48.728;9.256;2023-02-18T07:43:25;97864.16;;;9.97;100.00
12178;BME280;6152;48.728;9.256;2023-02-18T07:45:51;97862.34;;;9.99;100.00
12178;BME280;6152;48.728;9.256;2023-02-18T07:48:17;97856.84;;;10.05;100.00
12178;BME280;6152;48.728;9.256;2023-02-18T07:50:44;97855.84;;;10.07;100.00
12178;BME280;6152;48.728;9.256;2023-02-18T07:53:13;97860.75;;;10.15;100.00
12178;BME280;6152;48.728;9.256;2023-02-18T07:55:40;97856.19;;;10.20;100.00
12178;BME280;6152;48.728;9.256;2023-02-18T07:58:22;97850.75;;;10.25;100.00
12178;BME280;6152;48.728;9.256;2023-02-18T08:00:49;97854.97;;;10.27;100.00
12178;BME280;6152;48.728;9.256;2023-02-18T08:03:18;97840.81;;;10.33;100.00
12178;BME280;6152;48.728;9.256;2023-02-18T08:05:44;97841.06;;;10.45;100.00
12178;BME280;6152;48.728;9.256;2023-02-18T08:08:17;97849.19;;;10.56;100.00
12178;BME280;6152;48.728;9.256;2023-02-18T08:10:46;97850.59;;;10.63;100.00
12178;BME280;6152;48.728;9.256;2023-02-18T08:13:12;97853.03;;;10.67;100.00
12178;BME280;6152;48.728;9.256;2023-02-18T08:15:39;97848.31;;;10.75;100.00
12178;BME280;6152;48.728;9.256;2023-02-18T08:18:06;97841.19;;;10.78;100.00
12178;BME280;6152;48.728;9.256;2023-02-18T08:20:36;97843.31;;;10.87;100.00
12178;BME280;6152;48.728;9.256;2023-02-18T08:23:04;97847.84;;;10.84;100.00
12178;BME280;6152;48.728;9.256;2023-02-18T08:25:31;97857.25;;;10.86;100.00
12178;BME280;6152;48.728;9.256;2023-02-18T08:27:57;97857.13;;;10.89;100.00
12178;BME280;6152;48.728;9.256;2023-02-18T08:30:23;97856.13;;;10.92;100.00
12178;BME280;6152;48.728;9.256;2023-02-18T08:32:50;97847.25;;;10.96;100.00
12178;BME280;6152;48.728;9.256;2023-02-18T08:35:16;97857.25;;;11.03;100.00
12178;BME280;6152;48.728;9.256;2023-02-18T08:37:42;97849.84;;;11.13;100.00
12178;BME280;6152;48.728;9.256;2023-02-18T08:40:09;97849.34;;;11.22;100.00
12178;BME280;6152;48.728;9.256;2023-02-18T08:42:35;97844.75;;;11.27;100.00
12178;BME280;6152;48.728;9.256;2023-02-18T08:45:01;97850.25;;;11.38;100.00
12178;BME280;6152;48.728;9.256;2023-02-18T08:47:27;97836.13;;;11.42;100.00
12178;BME280;6152;48.728;9.256;2023-02-18T08:49:54;97844.47;;;11.49;100.00
12178;BME280;6152;48.728;9.256;2023-02-18T08:52:20;97842.53;;;11.52;100.00
12178;BME280;6152;48.728;9.256;2023-02-18T08:54:47;97843.91;;;11.59;100.00
12178;BME280;6152;48.728;9.256;2023-02-18T08:57:13;97844.75;;;11.60;100.00
12178;BME280;6152;48.728;9.256;2023-02-18T08:59:39;97849.25;;;11.74;100.00
12178;BME280;6152;48.728;9.256;2023-02-18T09:02:06;97838.25;;;11.84;100.00
12178;BME280;6152;48.728;9.256;2023-02-18T09:04:32;97832.81;;;11.89;100.00
12178;BME280;6152;48.728;9.256;2023-02-18T09:06:58;97830.19;;;11.89;100.00
12178;BME280;6152;48.728;9.256;2023-02-18T09:09:24;97826.34;;;11.96;100.00
12178;BME280;6152;48.728;9.256;2023-02-18T09:11:50;97830.78;;;11.94;100.00
12178;BME280;6152;48.728;9.256;2023-02-18T09:14:17;97832.06;;;12.02;100.00
12178;BME280;6152;48.728;9.256;2023-02-18T09:16:43;97813.53;;;12.23;100.00
12178;BME280;6152;48.728;9.256;2023-02-18T09:19:09;97827.63;;;12.34;100.00
12178;BME280;6152;48.728;9.256;2023-02-18T09:21:35;97823.00;;;12.39;100.00
12178;BME280;6152;48.728;9.256;2023-02-18T09:24:01;97820.41;;;12.39;100.00
12178;BME280;6152;48.728;9.256;2023-02-18T09:26:27;97821.59;;;12.34;100.00
12178;BME280;6152;48.728;9.256;2023-02-18T09:28:55;97816.28;;;12.35;100.00
12178;BME280;6152;48.728;9.256;2023-02-18T09:31:23;97807.88;;;12.30;100.00
12178;BME280;6152;48.728;9.256;2023-02-18T09:33:53;97808.63;;;12.32;100.00
12178;BME280;6152;48.728;9.256;2023-02-18T09:36:19;97811.22;;;12.32;100.00
12178;BME280;6152;48.728;9.256;2023-02-18T09:38:46;97801.22;;;12.40;100.00
12178;BME280;6152;48.728;9.256;2023-02-18T09:41:41;97799.25;;;12.44;100.00
12178;BME280;6152;48.728;9.256;2023-02-18T09:44:20;97792.31;;;12.58;100.00
12178;BME280;6152;48.728;9.256;2023-02-18T09:46:54;97798.66;;;12.54;100.00
12178;BME280;6152;48.728;9.256;2023-02-18T09:49:29;97794.91;;;12.58;100.00
12178;BME280;6152;48.728;9.256;2023-02-18T09:52:03;97798.13;;;12.63;100.00
12178;BME280;6152;48.728;9.256;2023-02-18T09:54:31;97800.78;;;12.62;100.00
12178;BME280;6152;48.728;9.256;2023-02-18T09:56:58;97796.09;;;12.69;100.00
12178;BME280;6152;48.728;9.256;2023-02-18T09:59:25;97803.69;;;12.57;100.00
12178;BME280;6152;48.728;9.256;2023-02-18T10:01:53;97799.44;;;12.71;100.00
12178;BME280;6152;48.728;9.256;2023-02-18T10:04:31;97810.44;;;12.61;100.00
12178;BME280;6152;48.728;9.256;2023-02-18T10:07:01;97803.16;;;12.66;100.00
12178;BME280;6152;48.728;9.256;2023-02-18T10:09:36;97795.72;;;12.75;100.00
12178;BME280;6152;48.728;9.256;2023-02-18T10:12:13;97797.06;;;12.82;100.00
12178;BME280;6152;48.728;9.256;2023-02-18T10:14:40;97798.19;;;12.92;100.00
12178;BME280;6152;48.728;9.256;2023-02-18T10:17:07;97809.78;;;13.02;100.00
12178;BME280;6152;48.728;9.256;2023-02-18T10:19:39;97798.19;;;12.92;100.00
12178;BME280;6152;48.728;9.256;2023-02-18T10:22:07;97797.78;;;12.84;100.00
12178;BME280;6152;48.728;9.256;2023-02-18T10:24:58;97796.50;;;12.91;100.00
12178;BME280;6152;48.728;9.256;2023-02-18T10:27:29;97801.00;;;13.03;100.00
12178;BME280;6152;48.728;9.256;2023-02-18T10:30:22;97793.50;;;13.27;100.00
12178;BME280;6152;48.728;9.256;2023-02-18T10:32:47;97800.50;;;13.40;100.00
12178;BME280;6152;48.728;9.256;2023-02-18T10:35:37;97794.13;;;13.58;100.00
12178;BME280;6152;48.728;9.256;2023-02-18T10:38:19;97807.25;;;13.44;100.00
12178;BME280;6152;48.728;9.256;2023-02-18T10:43:25;97807.97;;;13.60;100.00
12178;BME280;6152;48.728;9.256;2023-02-18T10:46:28;97799.75;;;13.52;100.00
12178;BME280;6152;48.728;9.256;2023-02-18T10:51:31;97788.91;;;13.58;100.00
12178;BME280;6152;48.728;9.256;2023-02-18T10:53:58;97815.56;;;13.65;100.00
12178;BME280;6152;48.728;9.256;2023-02-18T10:56:39;97802.56;;;13.63;100.00
12178;BME280;6152;48.728;9.256;2023-02-18T10:59:13;97796.59;;;13.47;100.00
12178;BME280;6152;48.728;9.256;2023-02-18T11:01:44;97797.50;;;13.60;100.00
12178;BME280;6152;48.728;9.256;2023-02-18T11:04:18;97807.97;;;13.60;100.00
12178;BME280;6152;48.728;9.256;2023-02-18T11:06:52;97802.75;;;13.60;100.00
12178;BME280;6152;48.728;9.256;2023-02-18T11:09:48;97792.88;;;13.51;100.00
12178;BME280;6152;48.728;9.256;2023-02-18T11:12:17;97783.19;;;13.66;100.00
12178;BME280;6152;48.728;9.256;2023-02-18T11:15:02;97789.53;;;13.90;100.00
12178;BME280;6152;48.728;9.256;2023-02-18T11:17:33;97777.84;;;13.96;100.00
12178;BME280;6152;48.728;9.256;2023-02-18T11:20:02;97769.44;;;14.17;100.00
12178;BME280;6152;48.728;9.256;2023-02-18T11:22:36;97765.69;;;14.22;100.00
12178;BME280;6152;48.728;9.256;2023-02-18T11:25:20;97774.94;;;14.27;99.62
12178;BME280;6152;48.728;9.256;2023-02-18T11:27:52;97761.06;;;14.39;97.61
12178;BME280;6152;48.728;9.256;2023-02-18T11:30:33;97759.00;;;14.44;96.17
12178;BME280;6152;48.728;9.256;2023-02-18T11:33:06;97742.34;;;14.31;96.59
12178;BME280;6152;48.728;9.256;2023-02-18T11:35:34;97744.25;;;14.29;96.26
12178;BME280;6152;48.728;9.256;2023-02-18T11:38:04;97741.16;;;14.37;96.63
12178;BME280;6152;48.728;9.256;2023-02-18T11:40:39;97755.78;;;14.27;96.66
12178;BME280;6152;48.728;9.256;2023-02-18T11:43:16;97753.03;;;14.28;97.39
12178;BME280;6152;48.728;9.256;2023-02-18T11:45:44;97739.22;;;14.26;95.44
12178;BME280;6152;48.728;9.256;2023-02-18T11:48:18;97752.09;;;14.29;95.80
12178;BME280;6152;48.728;9.256;2023-02-18T11:50:51;97739.19;;;14.40;94.81
12178;BME280;6152;48.728;9.256;2023-02-18T11:53:28;97745.22;;;14.68;94.33
12178;BME280;6152;48.728;9.256;2023-02-18T11:55:57;97737.47;;;14.91;90.35
12178;BME280;6152;48.728;9.256;2023-02-18T11:58:25;97744.38;;;15.17;87.62
12178;BME280;6152;48.728;9.256;2023-02-18T12:00:55;97735.06;;;15.01;85.92
12178;BME280;6152;48.728;9.256;2023-02-18T12:03:48;97723.81;;;15.24;83.81
12178;BME280;6152;48.728;9.256;2023-02-18T12:06:27;97723.78;;;15.75;79.93
12178;BME280;6152;48.728;9.256;2023-02-18T12:12:00;97717.78;;;15.73;78.07
12178;BME280;6152;48.728;9.256;2023-02-18T12:14:28;97714.53;;;15.69;77.59
12178;BME280;6152;48.728;9.256;2023-02-18T12:17:12;97713.50;;;15.72;77.20
12178;BME280;6152;48.728;9.256;2023-02-18T12:25:31;97717.09;;;15.58;77.35
12178;BME280;6152;48.728;9.256;2023-02-18T12:39:25;97707.50;;;14.95;79.38
12178;BME280;6152;48.728;9.256;2023-02-18T12:52:40;97721.75;;;14.91;74.93
12178;BME280;6152;48.728;9.256;2023-02-18T13:12:37;97696.91;;;14.32;79.56
12178;BME280;6152;48.728;9.256;2023-02-18T13:15:17;97693.38;;;14.33;78.31
12178;BME280;6152;48.728;9.256;2023-02-18T13:17:45;97689.72;;;14.36;76.99
12178;BME280;6152;48.728;9.256;2023-02-18T13:20:35;97688.00;;;14.22;77.08
12178;BME280;6152;48.728;9.256;2023-02-18T13:23:02;97692.03;;;14.13;79.37
12178;BME280;6152;48.728;9.256;2023-02-18T13:25:33;97681.28;;;14.18;78.93
12178;BME280;6152;48.728;9.256;2023-02-18T13:28:07;97689.09;;;14.05;80.11
12178;BME280;6152;48.728;9.256;2023-02-18T13:30:43;97683.03;;;14.05;79.84
12178;BME280;6152;48.728;9.256;2023-02-18T13:33:23;97684.34;;;13.98;79.26
12178;BME280;6152;48.728;9.256;2023-02-18T13:36:16;97666.25;;;13.95;79.19
12178;BME280;6152;48.728;9.256;2023-02-18T13:39:20;97649.06;;;13.91;81.25
12178;BME280;6152;48.728;9.256;2023-02-18T13:41:49;97668.50;;;13.87;79.94
12178;BME280;6152;48.728;9.256;2023-02-18T13:46:56;97660.34;;;13.79;80.23
12178;BME280;6152;48.728;9.256;2023-02-18T13:49:25;97665.41;;;13.94;78.99
12178;BME280;6152;48.728;9.256;2023-02-18T13:51:57;97661.22;;;13.92;79.21
12178;BME280;6152;48.728;9.256;2023-02-18T13:54:42;97667.16;;;13.94;78.06
12178;BME280;6152;48.728;9.256;2023-02-18T13:57:16;97671.19;;;13.99;80.17
12178;BME280;6152;48.728;9.256;2023-02-18T13:59:58;97670.56;;;13.96;79.61
12178;BME280;6152;48.728;9.256;2023-02-18T14:02:31;97662.59;;;13.97;79.75
12178;BME280;6152;48.728;9.256;2023-02-18T14:05:18;97653.66;;;13.87;80.34
12178;BME280;6152;48.728;9.256;2023-02-18T14:07:46;97657.16;;;13.74;82.25
12178;BME280;6152;48.728;9.256;2023-02-18T14:26:07;97635.22;;;14.28;79.78
12178;BME280;6152;48.728;9.256;2023-02-18T14:34:11;97629.84;;;14.44;78.31
12178;BME280;6152;48.728;9.256;2023-02-18T14:36:48;97618.19;;;14.60;76.44
12178;BME280;6152;48.728;9.256;2023-02-18T14:50:21;97620.06;;;14.58;78.16
12178;BME280;6152;48.728;9.256;2023-02-18T14:52:54;97622.19;;;14.41;77.26
12178;BME280;6152;48.728;9.256;2023-02-18T14:55:25;97619.72;;;14.25;76.40
12178;BME280;6152;48.728;9.256;2023-02-18T15:00:40;97624.53;;;14.31;78.51
12178;BME280;6152;48.728;9.256;2023-02-18T15:03:18;97614.91;;;14.32;78.82
12178;BME280;6152;48.728;9.256;2023-02-18T15:05:48;97623.69;;;14.18;78.61
12178;BME280;6152;48.728;9.256;2023-02-18T15:08:18;97630.25;;;14.11;79.37
12178;BME280;6152;48.728;9.256;2023-02-18T15:10:52;97639.59;;;14.15;79.67
12178;BME280;6152;48.728;9.256;2023-02-18T15:13:29;97624.59;;;14.04;80.40
12178;BME280;6152;48.728;9.256;2023-02-18T15:16:02;97624.50;;;14.06;81.83
12178;BME280;6152;48.728;9.256;2023-02-18T15:18:33;97627.34;;;14.03;81.25
12178;BME280;6152;48.728;9.256;2023-02-18T15:21:02;97615.47;;;13.97;80.30
12178;BME280;6152;48.728;9.256;2023-02-18T15:23:28;97614.13;;;14.04;80.24
12178;BME280;6152;48.728;9.256;2023-02-18T15:25:55;97619.56;;;14.01;81.41